Hauptseite
METAR-TAF:

METAR-TAF

Flughäfen :

Fourchambault

Nevers, Frankreich

Breite: 47-00N, Länge: 003-06E, Höhe: 180 m

Beobachtung

Neuester Wetterbericht von vor 3 Stunden und 5 Minuten, um 18:00 UTC
Wind 5 kt aus West/Südwest
Temperatur 6°C
Luftfeuchtigkeit 81%
Luftdruck 1012 hPa
Sichtweite 10 km oder mehr
Durchbrochene Bewölkung in der Höhe von 2800 ft
Geschlossene Wolkendecke in der Höhe von 3500 ft

METAR: LFQG 161800Z AUTO 25005KT 9999 BKN028 OVC035 06/03 Q1012

Zeit: 22:05 (21:05 UTC)


TAF: fehlend

Wetterbeobachtungen und Prognosen von mehr als 4000 Flughäfen (METAR und TAF Bericht).

Die verfügbaren Stationen werden durch gelbe und rote Markierungen auf der Karte dargestellt.

Führen Sie die Maus auf sie, um den Namen der Station zu sehen.

Darauf klicken, um die Beobachtung von Wetterbeobachtungen und Prognosen zu sehen.

Um die Karte zu ändern : klicken Sie auf den grünen Tasten mit einem schwarzen Kreuz Zum Vergrößern, auf den grünen Button mit einem Gedankenstrich zu verkleinern, oder auf die grünen Pfeile für benachbarte Karten.


METAR-TAF: